sensor_id;sensor_type;location;lat;lon;timestamp;temperature;humidity
3846;DHT22;1938;50.812;7.738;2023-12-04T00:00:15;-1.90;99.90
3846;DHT22;1938;50.812;7.738;2023-12-04T00:02:41;-1.80;22.90
3846;DHT22;1938;50.812;7.738;2023-12-04T00:05:07;-1.80;1.00
3846;DHT22;1938;50.812;7.738;2023-12-04T00:07:33;-1.80;1.00
3846;DHT22;1938;50.812;7.738;2023-12-04T00:09:58;-1.80;52.40
3846;DHT22;1938;50.812;7.738;2023-12-04T00:12:25;-1.60;99.90
3846;DHT22;1938;50.812;7.738;2023-12-04T00:14:50;-1.40;99.90
3846;DHT22;1938;50.812;7.738;2023-12-04T00:17:16;-1.50;99.90
3846;DHT22;1938;50.812;7.738;2023-12-04T00:19:42;-1.70;99.90
3846;DHT22;1938;50.812;7.738;2023-12-04T00:22:07;-1.80;99.90
3846;DHT22;1938;50.812;7.738;2023-12-04T00:24:34;-1.70;99.90
3846;DHT22;1938;50.812;7.738;2023-12-04T00:26:59;-1.70;21.60
3846;DHT22;1938;50.812;7.738;2023-12-04T00:29:25;-1.70;18.50
3846;DHT22;1938;50.812;7.738;2023-12-04T00:31:50;-1.60;1.00
3846;DHT22;1938;50.812;7.738;2023-12-04T00:34:16;-1.60;1.00
3846;DHT22;1938;50.812;7.738;2023-12-04T00:36:42;-1.50;1.00
3846;DHT22;1938;50.812;7.738;2023-12-04T00:39:07;-1.40;1.00
3846;DHT22;1938;50.812;7.738;2023-12-04T00:41:33;-1.50;99.90
3846;DHT22;1938;50.812;7.738;2023-12-04T00:43:59;-1.50;99.90
3846;DHT22;1938;50.812;7.738;2023-12-04T00:46:25;-1.60;99.90
3846;DHT22;1938;50.812;7.738;2023-12-04T00:48:52;-1.60;99.90
3846;DHT22;1938;50.812;7.738;2023-12-04T00:51:17;-1.60;99.90
3846;DHT22;1938;50.812;7.738;2023-12-04T00:53:43;-1.50;99.90
3846;DHT22;1938;50.812;7.738;2023-12-04T00:56:09;-1.60;98.40
3846;DHT22;1938;50.812;7.738;2023-12-04T00:58:34;-1.60;99.90
3846;DHT22;1938;50.812;7.738;2023-12-04T01:01:00;-1.60;99.90
3846;DHT22;1938;50.812;7.738;2023-12-04T01:03:26;-1.50;1.00
3846;DHT22;1938;50.812;7.738;2023-12-04T01:05:52;-1.60;99.90
3846;DHT22;1938;50.812;7.738;2023-12-04T01:08:17;-1.70;99.90
3846;DHT22;1938;50.812;7.738;2023-12-04T01:10:43;-1.70;99.90
3846;DHT22;1938;50.812;7.738;2023-12-04T01:13:09;-1.70;99.90
3846;DHT22;1938;50.812;7.738;2023-12-04T01:15:34;-1.70;1.00
3846;DHT22;1938;50.812;7.738;2023-12-04T01:18:00;-1.70;99.90
3846;DHT22;1938;50.812;7.738;2023-12-04T01:20:28;-1.70;99.90
3846;DHT22;1938;50.812;7.738;2023-12-04T01:22:54;-1.80;99.90
3846;DHT22;1938;50.812;7.738;2023-12-04T01:25:20;-1.70;1.00
3846;DHT22;1938;50.812;7.738;2023-12-04T01:27:45;-1.50;95.30
3846;DHT22;1938;50.812;7.738;2023-12-04T01:30:11;-1.60;99.90
3846;DHT22;1938;50.812;7.738;2023-12-04T01:32:37;-1.70;99.90
3846;DHT22;1938;50.812;7.738;2023-12-04T01:35:03;-1.70;1.00
3846;DHT22;1938;50.812;7.738;2023-12-04T01:37:29;-1.70;1.00
3846;DHT22;1938;50.812;7.738;2023-12-04T01:39:54;-1.70;1.00
3846;DHT22;1938;50.812;7.738;2023-12-04T01:42:21;-1.70;1.00
3846;DHT22;1938;50.812;7.738;2023-12-04T01:44:46;-1.80;1.00
3846;DHT22;1938;50.812;7.738;2023-12-04T01:47:12;-1.70;1.00
3846;DHT22;1938;50.812;7.738;2023-12-04T01:49:37;-1.80;1.00
3846;DHT22;1938;50.812;7.738;2023-12-04T01:52:03;-1.70;30.20
3846;DHT22;1938;50.812;7.738;2023-12-04T01:54:31;-1.80;1.00
3846;DHT22;1938;50.812;7.738;2023-12-04T01:56:57;-1.90;1.00
3846;DHT22;1938;50.812;7.738;2023-12-04T01:59:23;-1.90;1.00
3846;DHT22;1938;50.812;7.738;2023-12-04T02:01:49;-1.90;1.00
3846;DHT22;1938;50.812;7.738;2023-12-04T02:04:15;-2.00;1.00
3846;DHT22;1938;50.812;7.738;2023-12-04T02:06:40;-2.00;49.70
3846;DHT22;1938;50.812;7.738;2023-12-04T02:09:06;-2.10;96.70
3846;DHT22;1938;50.812;7.738;2023-12-04T02:11:35;-2.10;99.90
3846;DHT22;1938;50.812;7.738;2023-12-04T02:14:00;-2.10;79.70
3846;DHT22;1938;50.812;7.738;2023-12-04T02:16:27;-1.80;1.00
3846;DHT22;1938;50.812;7.738;2023-12-04T02:18:54;-2.10;99.90
3846;DHT22;1938;50.812;7.738;2023-12-04T02:21:20;-2.10;99.90
3846;DHT22;1938;50.812;7.738;2023-12-04T02:23:50;-2.10;99.90
3846;DHT22;1938;50.812;7.738;2023-12-04T02:26:21;-2.10;99.90
3846;DHT22;1938;50.812;7.738;2023-12-04T02:28:52;-2.10;99.90
3846;DHT22;1938;50.812;7.738;2023-12-04T02:31:20;-2.00;99.90
3846;DHT22;1938;50.812;7.738;2023-12-04T02:33:48;-2.00;1.00
3846;DHT22;1938;50.812;7.738;2023-12-04T02:36:15;-2.10;1.00
3846;DHT22;1938;50.812;7.738;2023-12-04T02:38:42;-1.90;99.90
3846;DHT22;1938;50.812;7.738;2023-12-04T02:41:07;-1.80;28.00
3846;DHT22;1938;50.812;7.738;2023-12-04T02:43:33;-1.90;40.30
3846;DHT22;1938;50.812;7.738;2023-12-04T02:46:00;-2.00;10.90
3846;DHT22;1938;50.812;7.738;2023-12-04T02:48:25;-2.00;46.10
3846;DHT22;1938;50.812;7.738;2023-12-04T02:50:51;-2.00;2.00
3846;DHT22;1938;50.812;7.738;2023-12-04T02:53:16;-2.10;89.60
3846;DHT22;1938;50.812;7.738;2023-12-04T02:55:43;-2.20;2.30
3846;DHT22;1938;50.812;7.738;2023-12-04T02:58:08;-2.10;32.10
3846;DHT22;1938;50.812;7.738;2023-12-04T03:00:34;-2.10;1.00
3846;DHT22;1938;50.812;7.738;2023-12-04T03:02:59;-2.10;51.80
3846;DHT22;1938;50.812;7.738;2023-12-04T03:05:25;-2.20;12.40
3846;DHT22;1938;50.812;7.738;2023-12-04T03:07:51;-2.20;14.00
3846;DHT22;1938;50.812;7.738;2023-12-04T03:10:17;-2.30;4.10
3846;DHT22;1938;50.812;7.738;2023-12-04T03:12:42;-2.30;18.90
3846;DHT22;1938;50.812;7.738;2023-12-04T03:15:08;-2.30;16.80
3846;DHT22;1938;50.812;7.738;2023-12-04T03:17:35;-2.40;86.90
3846;DHT22;1938;50.812;7.738;2023-12-04T03:20:01;-2.30;99.90
3846;DHT22;1938;50.812;7.738;2023-12-04T03:22:27;-2.40;99.90
3846;DHT22;1938;50.812;7.738;2023-12-04T03:24:53;-2.40;99.90
3846;DHT22;1938;50.812;7.738;2023-12-04T03:27:19;-2.40;99.90
3846;DHT22;1938;50.812;7.738;2023-12-04T03:29:44;-2.50;99.90
3846;DHT22;1938;50.812;7.738;2023-12-04T03:32:11;-2.50;99.90
3846;DHT22;1938;50.812;7.738;2023-12-04T03:34:36;-2.40;99.90
3846;DHT22;1938;50.812;7.738;2023-12-04T03:37:02;-2.40;99.90
3846;DHT22;1938;50.812;7.738;2023-12-04T03:39:27;-2.40;32.70
3846;DHT22;1938;50.812;7.738;2023-12-04T03:41:53;-2.30;36.20
3846;DHT22;1938;50.812;7.738;2023-12-04T03:44:18;-2.40;30.00
3846;DHT22;1938;50.812;7.738;2023-12-04T03:46:44;-2.30;10.00
3846;DHT22;1938;50.812;7.738;2023-12-04T03:49:10;-2.20;1.00
3846;DHT22;1938;50.812;7.738;2023-12-04T03:51:36;-2.30;1.00
3846;DHT22;1938;50.812;7.738;2023-12-04T03:54:01;-2.30;1.00
3846;DHT22;1938;50.812;7.738;2023-12-04T03:56:27;-2.20;1.00
3846;DHT22;1938;50.812;7.738;2023-12-04T03:58:53;-2.10;1.00
3846;DHT22;1938;50.812;7.738;2023-12-04T04:01:18;-2.10;1.00
3846;DHT22;1938;50.812;7.738;2023-12-04T04:03:44;-1.90;99.90
3846;DHT22;1938;50.812;7.738;2023-12-04T04:06:11;-1.90;99.90
3846;DHT22;1938;50.812;7.738;2023-12-04T04:08:36;-2.00;99.90
3846;DHT22;1938;50.812;7.738;2023-12-04T04:11:02;-2.00;99.90
3846;DHT22;1938;50.812;7.738;2023-12-04T04:13:28;-2.10;99.90
3846;DHT22;1938;50.812;7.738;2023-12-04T04:15:53;-2.00;99.90
3846;DHT22;1938;50.812;7.738;2023-12-04T04:18:19;-2.10;99.90
3846;DHT22;1938;50.812;7.738;2023-12-04T04:20:44;-2.00;99.90
3846;DHT22;1938;50.812;7.738;2023-12-04T04:23:10;-2.00;99.90
3846;DHT22;1938;50.812;7.738;2023-12-04T04:25:35;-2.00;99.90
3846;DHT22;1938;50.812;7.738;2023-12-04T04:28:01;-1.80;6.10
3846;DHT22;1938;50.812;7.738;2023-12-04T04:30:26;-1.80;99.90
3846;DHT22;1938;50.812;7.738;2023-12-04T04:32:53;-1.80;99.90
3846;DHT22;1938;50.812;7.738;2023-12-04T04:35:19;-1.80;95.50
3846;DHT22;1938;50.812;7.738;2023-12-04T04:37:44;-1.90;99.90
3846;DHT22;1938;50.812;7.738;2023-12-04T04:40:10;-2.00;99.90
3846;DHT22;1938;50.812;7.738;2023-12-04T04:42:35;-2.00;99.90
3846;DHT22;1938;50.812;7.738;2023-12-04T04:45:01;-2.00;99.90
3846;DHT22;1938;50.812;7.738;2023-12-04T04:47:27;-2.10;99.90
3846;DHT22;1938;50.812;7.738;2023-12-04T04:49:52;-2.20;99.90
3846;DHT22;1938;50.812;7.738;2023-12-04T04:52:18;-2.00;1.00
3846;DHT22;1938;50.812;7.738;2023-12-04T04:54:44;-1.80;1.00
3846;DHT22;1938;50.812;7.738;2023-12-04T04:57:09;-1.80;99.90
3846;DHT22;1938;50.812;7.738;2023-12-04T04:59:35;-1.90;93.50
3846;DHT22;1938;50.812;7.738;2023-12-04T05:02:01;-1.90;99.90
3846;DHT22;1938;50.812;7.738;2023-12-04T05:04:27;-2.10;92.40
3846;DHT22;1938;50.812;7.738;2023-12-04T05:06:52;-2.00;99.90
3846;DHT22;1938;50.812;7.738;2023-12-04T05:09:18;-2.10;99.90
3846;DHT22;1938;50.812;7.738;2023-12-04T05:11:43;-2.10;99.90
3846;DHT22;1938;50.812;7.738;2023-12-04T05:14:09;-2.10;99.90
3846;DHT22;1938;50.812;7.738;2023-12-04T05:16:34;-2.00;1.00
3846;DHT22;1938;50.812;7.738;2023-12-04T05:19:01;-1.60;99.90
3846;DHT22;1938;50.812;7.738;2023-12-04T05:21:26;-1.90;20.80
3846;DHT22;1938;50.812;7.738;2023-12-04T05:23:52;-1.90;99.90
3846;DHT22;1938;50.812;7.738;2023-12-04T05:26:17;-2.10;40.60
3846;DHT22;1938;50.812;7.738;2023-12-04T05:28:43;-2.10;99.90
3846;DHT22;1938;50.812;7.738;2023-12-04T05:31:08;-2.10;1.00
3846;DHT22;1938;50.812;7.738;2023-12-04T05:33:34;-2.20;1.00
3846;DHT22;1938;50.812;7.738;2023-12-04T05:36:00;-2.20;1.00
3846;DHT22;1938;50.812;7.738;2023-12-04T05:38:25;-2.30;99.90
3846;DHT22;1938;50.812;7.738;2023-12-04T05:40:51;-2.30;99.90
3846;DHT22;1938;50.812;7.738;2023-12-04T05:43:17;-2.40;99.90
3846;DHT22;1938;50.812;7.738;2023-12-04T05:45:45;-2.50;99.90
3846;DHT22;1938;50.812;7.738;2023-12-04T05:48:10;-2.60;1.00
3846;DHT22;1938;50.812;7.738;2023-12-04T05:50:36;-2.50;99.90
3846;DHT22;1938;50.812;7.738;2023-12-04T05:53:01;-2.30;1.00
3846;DHT22;1938;50.812;7.738;2023-12-04T05:55:27;-2.30;99.90
3846;DHT22;1938;50.812;7.738;2023-12-04T05:57:52;-2.40;99.90
3846;DHT22;1938;50.812;7.738;2023-12-04T06:00:18;-2.10;1.00
3846;DHT22;1938;50.812;7.738;2023-12-04T06:02:44;-2.20;27.90
3846;DHT22;1938;50.812;7.738;2023-12-04T06:05:11;-2.40;25.50
3846;DHT22;1938;50.812;7.738;2023-12-04T06:07:37;-2.40;1.00
3846;DHT22;1938;50.812;7.738;2023-12-04T06:10:04;-2.40;99.90
3846;DHT22;1938;50.812;7.738;2023-12-04T06:12:30;-2.50;96.90
3846;DHT22;1938;50.812;7.738;2023-12-04T06:14:56;-2.50;1.00
3846;DHT22;1938;50.812;7.738;2023-12-04T06:17:21;-2.50;1.00
3846;DHT22;1938;50.812;7.738;2023-12-04T06:19:47;-2.70;1.00
3846;DHT22;1938;50.812;7.738;2023-12-04T06:22:12;-2.80;48.40
3846;DHT22;1938;50.812;7.738;2023-12-04T06:24:38;-2.70;48.80
3846;DHT22;1938;50.812;7.738;2023-12-04T06:27:04;-2.80;36.20
3846;DHT22;1938;50.812;7.738;2023-12-04T06:29:31;-2.70;99.90
3846;DHT22;1938;50.812;7.738;2023-12-04T06:31:58;-2.50;98.80
3846;DHT22;1938;50.812;7.738;2023-12-04T06:34:24;-2.70;1.00
3846;DHT22;1938;50.812;7.738;2023-12-04T06:36:49;-2.80;1.00
3846;DHT22;1938;50.812;7.738;2023-12-04T06:39:16;-2.90;99.90
3846;DHT22;1938;50.812;7.738;2023-12-04T06:41:42;-3.00;99.90
3846;DHT22;1938;50.812;7.738;2023-12-04T06:44:08;-3.00;99.90
3846;DHT22;1938;50.812;7.738;2023-12-04T06:46:37;-3.10;99.90
3846;DHT22;1938;50.812;7.738;2023-12-04T06:49:05;-3.20;1.00
3846;DHT22;1938;50.812;7.738;2023-12-04T06:51:31;-3.10;72.90
3846;DHT22;1938;50.812;7.738;2023-12-04T06:53:57;-3.00;99.90
3846;DHT22;1938;50.812;7.738;2023-12-04T06:56:23;-2.90;99.90
3846;DHT22;1938;50.812;7.738;2023-12-04T06:58:49;-2.70;99.90
3846;DHT22;1938;50.812;7.738;2023-12-04T07:01:16;-2.60;99.90
3846;DHT22;1938;50.812;7.738;2023-12-04T07:03:42;-2.50;93.50
3846;DHT22;1938;50.812;7.738;2023-12-04T07:06:07;-2.40;1.00
3846;DHT22;1938;50.812;7.738;2023-12-04T07:08:33;-2.30;99.90
3846;DHT22;1938;50.812;7.738;2023-12-04T07:10:58;-2.20;99.90
3846;DHT22;1938;50.812;7.738;2023-12-04T07:13:24;-2.10;99.90
3846;DHT22;1938;50.812;7.738;2023-12-04T07:15:49;-2.00;99.90
3846;DHT22;1938;50.812;7.738;2023-12-04T07:18:15;-2.00;50.20
3846;DHT22;1938;50.812;7.738;2023-12-04T07:20:40;-2.00;1.00
3846;DHT22;1938;50.812;7.738;2023-12-04T07:23:06;-2.00;1.00
3846;DHT22;1938;50.812;7.738;2023-12-04T07:25:31;-2.10;1.00
3846;DHT22;1938;50.812;7.738;2023-12-04T07:27:57;-2.10;1.00
3846;DHT22;1938;50.812;7.738;2023-12-04T07:30:25;-2.30;1.00
3846;DHT22;1938;50.812;7.738;2023-12-04T07:32:51;-2.40;1.00
3846;DHT22;1938;50.812;7.738;2023-12-04T07:35:17;-2.40;25.90
3846;DHT22;1938;50.812;7.738;2023-12-04T07:37:44;-2.40;42.80
3846;DHT22;1938;50.812;7.738;2023-12-04T07:40:10;-2.40;99.90
3846;DHT22;1938;50.812;7.738;2023-12-04T07:42:36;-2.50;96.80
3846;DHT22;1938;50.812;7.738;2023-12-04T07:45:02;-2.50;99.90
3846;DHT22;1938;50.812;7.738;2023-12-04T07:47:28;-2.50;99.90
3846;DHT22;1938;50.812;7.738;2023-12-04T07:49:53;-2.50;99.90
3846;DHT22;1938;50.812;7.738;2023-12-04T07:52:19;-2.40;99.90
3846;DHT22;1938;50.812;7.738;2023-12-04T07:54:44;-2.20;99.90
3846;DHT22;1938;50.812;7.738;2023-12-04T07:57:10;-2.20;51.50
3846;DHT22;1938;50.812;7.738;2023-12-04T07:59:35;-2.20;1.00
3846;DHT22;1938;50.812;7.738;2023-12-04T08:02:01;-2.00;1.00
3846;DHT22;1938;50.812;7.738;2023-12-04T08:04:26;-2.00;1.00
3846;DHT22;1938;50.812;7.738;2023-12-04T08:06:52;-2.00;1.00
3846;DHT22;1938;50.812;7.738;2023-12-04T08:09:18;-2.00;1.00
3846;DHT22;1938;50.812;7.738;2023-12-04T08:11:44;-2.00;1.00
3846;DHT22;1938;50.812;7.738;2023-12-04T08:14:09;-2.20;1.00
3846;DHT22;1938;50.812;7.738;2023-12-04T08:16:35;-2.30;11.60
3846;DHT22;1938;50.812;7.738;2023-12-04T08:19:00;-2.30;1.00
3846;DHT22;1938;50.812;7.738;2023-12-04T08:21:26;-2.30;1.00
3846;DHT22;1938;50.812;7.738;2023-12-04T08:23:51;-2.20;1.00
3846;DHT22;1938;50.812;7.738;2023-12-04T08:26:26;-2.10;1.00
3846;DHT22;1938;50.812;7.738;2023-12-04T08:28:52;-2.10;1.00
3846;DHT22;1938;50.812;7.738;2023-12-04T08:31:17;-2.10;1.00
3846;DHT22;1938;50.812;7.738;2023-12-04T08:33:43;-2.10;1.00
3846;DHT22;1938;50.812;7.738;2023-12-04T08:36:10;-2.10;1.00
3846;DHT22;1938;50.812;7.738;2023-12-04T08:38:35;-2.10;1.00
3846;DHT22;1938;50.812;7.738;2023-12-04T08:41:01;-2.10;1.00
3846;DHT22;1938;50.812;7.738;2023-12-04T08:43:27;-2.10;1.00
3846;DHT22;1938;50.812;7.738;2023-12-04T08:45:54;-2.10;1.00
3846;DHT22;1938;50.812;7.738;2023-12-04T08:48:20;-2.00;1.00
3846;DHT22;1938;50.812;7.738;2023-12-04T08:50:45;-2.10;1.00
3846;DHT22;1938;50.812;7.738;2023-12-04T08:53:11;-2.00;1.00
3846;DHT22;1938;50.812;7.738;2023-12-04T08:55:37;-2.00;1.00
3846;DHT22;1938;50.812;7.738;2023-12-04T08:58:03;-2.00;1.00
3846;DHT22;1938;50.812;7.738;2023-12-04T09:00:29;-2.00;99.90
3846;DHT22;1938;50.812;7.738;2023-12-04T09:02:54;-2.10;1.00
3846;DHT22;1938;50.812;7.738;2023-12-04T09:05:20;-2.10;1.00
3846;DHT22;1938;50.812;7.738;2023-12-04T09:07:46;-2.20;1.00
3846;DHT22;1938;50.812;7.738;2023-12-04T09:10:12;-2.20;1.00
3846;DHT22;1938;50.812;7.738;2023-12-04T09:12:37;-2.10;1.00
3846;DHT22;1938;50.812;7.738;2023-12-04T09:15:04;-1.90;1.00
3846;DHT22;1938;50.812;7.738;2023-12-04T09:17:30;-1.80;1.00
3846;DHT22;1938;50.812;7.738;2023-12-04T09:19:55;-1.60;1.00
3846;DHT22;1938;50.812;7.738;2023-12-04T09:22:21;-1.60;99.90
3846;DHT22;1938;50.812;7.738;2023-12-04T09:24:47;-1.60;99.90
3846;DHT22;1938;50.812;7.738;2023-12-04T09:27:12;-1.70;99.90
3846;DHT22;1938;50.812;7.738;2023-12-04T09:29:38;-2.00;99.90
3846;DHT22;1938;50.812;7.738;2023-12-04T09:32:03;-2.10;1.00
3846;DHT22;1938;50.812;7.738;2023-12-04T09:34:29;-1.90;15.20
3846;DHT22;1938;50.812;7.738;2023-12-04T09:36:55;-1.70;1.00
3846;DHT22;1938;50.812;7.738;2023-12-04T09:39:20;-1.90;1.00
3846;DHT22;1938;50.812;7.738;2023-12-04T09:41:46;-1.90;1.00
3846;DHT22;1938;50.812;7.738;2023-12-04T09:44:12;-2.00;1.00
3846;DHT22;1938;50.812;7.738;2023-12-04T09:46:39;-2.10;1.00
3846;DHT22;1938;50.812;7.738;2023-12-04T09:49:05;-2.10;1.00
3846;DHT22;1938;50.812;7.738;2023-12-04T09:51:31;-2.10;1.00
3846;DHT22;1938;50.812;7.738;2023-12-04T09:53:57;-2.20;1.00
3846;DHT22;1938;50.812;7.738;2023-12-04T09:56:25;-2.10;1.00
3846;DHT22;1938;50.812;7.738;2023-12-04T09:58:57;-1.90;1.00
3846;DHT22;1938;50.812;7.738;2023-12-04T10:01:24;-1.70;1.00
3846;DHT22;1938;50.812;7.738;2023-12-04T10:03:50;-1.60;1.00
3846;DHT22;1938;50.812;7.738;2023-12-04T10:06:16;-1.70;1.00
3846;DHT22;1938;50.812;7.738;2023-12-04T10:08:45;-1.60;99.90
3846;DHT22;1938;50.812;7.738;2023-12-04T10:11:12;-1.60;99.90
3846;DHT22;1938;50.812;7.738;2023-12-04T10:13:37;-1.50;99.90
3846;DHT22;1938;50.812;7.738;2023-12-04T10:16:03;-1.50;99.90
3846;DHT22;1938;50.812;7.738;2023-12-04T10:18:30;-1.40;99.90
3846;DHT22;1938;50.812;7.738;2023-12-04T10:20:58;-1.50;99.90
3846;DHT22;1938;50.812;7.738;2023-12-04T10:23:41;-1.40;99.90
3846;DHT22;1938;50.812;7.738;2023-12-04T10:26:08;-1.20;99.90
3846;DHT22;1938;50.812;7.738;2023-12-04T10:28:37;-1.00;99.90
3846;DHT22;1938;50.812;7.738;2023-12-04T10:31:04;-0.80;99.90
3846;DHT22;1938;50.812;7.738;2023-12-04T10:33:32;-0.60;99.90
3846;DHT22;1938;50.812;7.738;2023-12-04T10:35:58;-0.60;99.90
3846;DHT22;1938;50.812;7.738;2023-12-04T10:38:23;-0.50;99.90
3846;DHT22;1938;50.812;7.738;2023-12-04T10:40:49;-0.60;99.90
3846;DHT22;1938;50.812;7.738;2023-12-04T10:43:24;-0.50;99.90
3846;DHT22;1938;50.812;7.738;2023-12-04T10:45:50;-0.30;99.90
3846;DHT22;1938;50.812;7.738;2023-12-04T10:48:18;-0.20;99.90
3846;DHT22;1938;50.812;7.738;2023-12-04T10:50:45;0.00;99.90
3846;DHT22;1938;50.812;7.738;2023-12-04T10:53:12;0.20;99.90
3846;DHT22;1938;50.812;7.738;2023-12-04T10:55:38;0.20;99.90
3846;DHT22;1938;50.812;7.738;2023-12-04T10:58:06;0.40;99.90
3846;DHT22;1938;50.812;7.738;2023-12-04T11:00:34;0.50;82.90
3846;DHT22;1938;50.812;7.738;2023-12-04T11:03:13;0.70;90.10
3846;DHT22;1938;50.812;7.738;2023-12-04T11:05:40;0.80;76.40
3846;DHT22;1938;50.812;7.738;2023-12-04T11:08:09;1.00;97.60
3846;DHT22;1938;50.812;7.738;2023-12-04T11:11:34;1.10;94.10
3846;DHT22;1938;50.812;7.738;2023-12-04T11:13:41;1.20;99.90
3846;DHT22;1938;50.812;7.738;2023-12-04T11:16:18;1.30;99.90
3846;DHT22;1938;50.812;7.738;2023-12-04T11:18:52;1.50;99.90
3846;DHT22;1938;50.812;7.738;2023-12-04T11:21:20;1.50;99.90
3846;DHT22;1938;50.812;7.738;2023-12-04T11:23:47;1.50;99.90
3846;DHT22;1938;50.812;7.738;2023-12-04T11:26:14;1.50;99.90
3846;DHT22;1938;50.812;7.738;2023-12-04T11:28:40;1.60;99.90
3846;DHT22;1938;50.812;7.738;2023-12-04T11:31:08;1.50;99.90
3846;DHT22;1938;50.812;7.738;2023-12-04T11:33:38;1.50;99.90
3846;DHT22;1938;50.812;7.738;2023-12-04T11:36:08;1.50;99.90
3846;DHT22;1938;50.812;7.738;2023-12-04T11:38:35;1.50;99.90
3846;DHT22;1938;50.812;7.738;2023-12-04T11:41:24;0.90;99.90
3846;DHT22;1938;50.812;7.738;2023-12-04T11:43:51;0.70;1.00
3846;DHT22;1938;50.812;7.738;2023-12-04T11:46:27;0.40;1.00
3846;DHT22;1938;50.812;7.738;2023-12-04T11:48:54;0.30;16.30
3846;DHT22;1938;50.812;7.738;2023-12-04T11:54:07;0.00;99.90
3846;DHT22;1938;50.812;7.738;2023-12-04T11:56:33;0.00;99.90
3846;DHT22;1938;50.812;7.738;2023-12-04T11:59:03;0.00;99.90
3846;DHT22;1938;50.812;7.738;2023-12-04T12:01:36;0.10;99.90
3846;DHT22;1938;50.812;7.738;2023-12-04T12:04:05;0.30;41.50
3846;DHT22;1938;50.812;7.738;2023-12-04T12:06:30;0.10;99.90
3846;DHT22;1938;50.812;7.738;2023-12-04T12:08:56;0.00;99.90
3846;DHT22;1938;50.812;7.738;2023-12-04T12:11:26;-0.10;99.90
3846;DHT22;1938;50.812;7.738;2023-12-04T12:13:55;-0.20;1.00
3846;DHT22;1938;50.812;7.738;2023-12-04T12:16:21;-0.30;15.50
3846;DHT22;1938;50.812;7.738;2023-12-04T12:18:46;-0.30;96.20
3846;DHT22;1938;50.812;7.738;2023-12-04T12:21:12;-0.40;99.90
3846;DHT22;1938;50.812;7.738;2023-12-04T12:23:38;-0.40;99.90
3846;DHT22;1938;50.812;7.738;2023-12-04T12:26:04;-0.20;1.00
3846;DHT22;1938;50.812;7.738;2023-12-04T12:28:29;0.00;1.00
3846;DHT22;1938;50.812;7.738;2023-12-04T12:30:55;-0.10;99.90
3846;DHT22;1938;50.812;7.738;2023-12-04T12:33:21;-0.30;99.90
3846;DHT22;1938;50.812;7.738;2023-12-04T12:35:48;-0.30;99.90
3846;DHT22;1938;50.812;7.738;2023-12-04T12:38:15;-0.30;99.90
3846;DHT22;1938;50.812;7.738;2023-12-04T12:40:42;-0.50;1.00
3846;DHT22;1938;50.812;7.738;2023-12-04T12:43:09;-0.60;17.20
3846;DHT22;1938;50.812;7.738;2023-12-04T12:45:44;-0.70;1.00
3846;DHT22;1938;50.812;7.738;2023-12-04T12:48:14;-0.70;1.00
3846;DHT22;1938;50.812;7.738;2023-12-04T12:50:41;-0.60;99.90
3846;DHT22;1938;50.812;7.738;2023-12-04T12:53:07;-0.20;4.90
3846;DHT22;1938;50.812;7.738;2023-12-04T12:55:33;-0.50;99.90
3846;DHT22;1938;50.812;7.738;2023-12-04T12:57:59;-0.60;99.90
3846;DHT22;1938;50.812;7.738;2023-12-04T13:00:24;-0.70;1.00
3846;DHT22;1938;50.812;7.738;2023-12-04T13:02:52;-0.80;88.20
3846;DHT22;1938;50.812;7.738;2023-12-04T13:05:18;-0.70;83.00
3846;DHT22;1938;50.812;7.738;2023-12-04T13:07:45;-0.90;99.90
3846;DHT22;1938;50.812;7.738;2023-12-04T13:10:11;-0.80;99.90
3846;DHT22;1938;50.812;7.738;2023-12-04T13:12:37;-0.80;99.90
3846;DHT22;1938;50.812;7.738;2023-12-04T13:15:03;-0.70;99.90
3846;DHT22;1938;50.812;7.738;2023-12-04T13:17:29;-0.30;99.90
3846;DHT22;1938;50.812;7.738;2023-12-04T13:19:54;-0.50;1.00
3846;DHT22;1938;50.812;7.738;2023-12-04T13:22:20;-0.60;45.70
3846;DHT22;1938;50.812;7.738;2023-12-04T13:24:45;-0.80;99.90
3846;DHT22;1938;50.812;7.738;2023-12-04T13:27:11;-0.90;1.00
3846;DHT22;1938;50.812;7.738;2023-12-04T13:29:36;-0.90;1.00
3846;DHT22;1938;50.812;7.738;2023-12-04T13:32:03;-1.00;99.90
3846;DHT22;1938;50.812;7.738;2023-12-04T13:34:29;-1.10;1.00
3846;DHT22;1938;50.812;7.738;2023-12-04T13:36:55;-1.10;12.10
3846;DHT22;1938;50.812;7.738;2023-12-04T13:39:21;-1.20;26.40
3846;DHT22;1938;50.812;7.738;2023-12-04T13:41:52;-0.90;99.90
3846;DHT22;1938;50.812;7.738;2023-12-04T13:44:36;-0.90;97.10
3846;DHT22;1938;50.812;7.738;2023-12-04T13:47:03;-1.00;1.00
3846;DHT22;1938;50.812;7.738;2023-12-04T13:49:28;-1.10;1.00
3846;DHT22;1938;50.812;7.738;2023-12-04T13:51:54;-1.10;99.90
3846;DHT22;1938;50.812;7.738;2023-12-04T13:54:20;-1.10;99.90
3846;DHT22;1938;50.812;7.738;2023-12-04T13:56:48;-1.20;1.00
3846;DHT22;1938;50.812;7.738;2023-12-04T13:59:22;-1.20;1.00
3846;DHT22;1938;50.812;7.738;2023-12-04T14:01:48;-1.20;1.00
3846;DHT22;1938;50.812;7.738;2023-12-04T14:04:18;-1.10;99.90
3846;DHT22;1938;50.812;7.738;2023-12-04T14:06:43;-1.20;99.90
3846;DHT22;1938;50.812;7.738;2023-12-04T14:09:10;-1.10;99.90
3846;DHT22;1938;50.812;7.738;2023-12-04T14:11:41;-1.10;99.90
3846;DHT22;1938;50.812;7.738;2023-12-04T14:14:07;-1.20;99.90
3846;DHT22;1938;50.812;7.738;2023-12-04T14:16:33;-1.10;99.90
3846;DHT22;1938;50.812;7.738;2023-12-04T14:18:58;-1.10;99.90
3846;DHT22;1938;50.812;7.738;2023-12-04T14:21:24;-1.00;1.00
3846;DHT22;1938;50.812;7.738;2023-12-04T14:23:50;-1.00;1.00
3846;DHT22;1938;50.812;7.738;2023-12-04T14:26:15;-0.90;1.00
3846;DHT22;1938;50.812;7.738;2023-12-04T14:28:41;-0.90;99.90
3846;DHT22;1938;50.812;7.738;2023-12-04T14:31:07;-0.80;99.90
3846;DHT22;1938;50.812;7.738;2023-12-04T14:33:33;-0.90;1.00
3846;DHT22;1938;50.812;7.738;2023-12-04T14:35:58;-1.00;1.00
3846;DHT22;1938;50.812;7.738;2023-12-04T14:38:24;-1.00;1.00
3846;DHT22;1938;50.812;7.738;2023-12-04T14:40:50;-1.00;1.00
3846;DHT22;1938;50.812;7.738;2023-12-04T14:43:16;-1.10;1.00
3846;DHT22;1938;50.812;7.738;2023-12-04T14:45:42;-1.00;43.30
3846;DHT22;1938;50.812;7.738;2023-12-04T14:48:08;-0.70;18.10
3846;DHT22;1938;50.812;7.738;2023-12-04T14:50:34;-0.70;5.30
3846;DHT22;1938;50.812;7.738;2023-12-04T14:53:04;-0.70;99.90
3846;DHT22;1938;50.812;7.738;2023-12-04T14:55:44;-0.80;84.90
3846;DHT22;1938;50.812;7.738;2023-12-04T14:58:28;-0.80;1.00
3846;DHT22;1938;50.812;7.738;2023-12-04T15:01:04;-0.80;22.60
3846;DHT22;1938;50.812;7.738;2023-12-04T15:03:48;-0.80;95.70
3846;DHT22;1938;50.812;7.738;2023-12-04T15:06:32;-0.80;99.90
3846;DHT22;1938;50.812;7.738;2023-12-04T15:09:07;-0.70;99.90
3846;DHT22;1938;50.812;7.738;2023-12-04T15:11:51;-0.70;99.90
3846;DHT22;1938;50.812;7.738;2023-12-04T15:14:39;-0.40;34.90
3846;DHT22;1938;50.812;7.738;2023-12-04T15:17:13;-0.50;80.90
3846;DHT22;1938;50.812;7.738;2023-12-04T15:19:53;-0.60;99.90
3846;DHT22;1938;50.812;7.738;2023-12-04T15:22:25;-0.70;1.00
3846;DHT22;1938;50.812;7.738;2023-12-04T15:24:51;-0.80;1.00
3846;DHT22;1938;50.812;7.738;2023-12-04T15:27:17;-0.80;1.00
3846;DHT22;1938;50.812;7.738;2023-12-04T15:29:43;-0.90;1.00
3846;DHT22;1938;50.812;7.738;2023-12-04T15:32:09;-0.90;99.90
3846;DHT22;1938;50.812;7.738;2023-12-04T15:34:34;-0.90;99.90
3846;DHT22;1938;50.812;7.738;2023-12-04T15:37:00;-0.70;99.90
3846;DHT22;1938;50.812;7.738;2023-12-04T15:39:26;-0.60;99.90
3846;DHT22;1938;50.812;7.738;2023-12-04T15:41:51;-0.70;99.90
3846;DHT22;1938;50.812;7.738;2023-12-04T15:44:17;-0.90;99.90
3846;DHT22;1938;50.812;7.738;2023-12-04T15:46:42;-0.90;1.00
3846;DHT22;1938;50.812;7.738;2023-12-04T15:49:08;-0.90;1.00
3846;DHT22;1938;50.812;7.738;2023-12-04T15:51:33;-0.90;1.00
3846;DHT22;1938;50.812;7.738;2023-12-04T15:54:00;-0.90;99.90
3846;DHT22;1938;50.812;7.738;2023-12-04T15:56:25;-0.80;99.90
3846;DHT22;1938;50.812;7.738;2023-12-04T15:58:51;-0.80;99.90
3846;DHT22;1938;50.812;7.738;2023-12-04T16:01:16;-0.70;1.00
3846;DHT22;1938;50.812;7.738;2023-12-04T16:03:43;-0.50;99.90
3846;DHT22;1938;50.812;7.738;2023-12-04T16:06:10;-0.60;99.90
3846;DHT22;1938;50.812;7.738;2023-12-04T16:08:36;-0.70;99.90